createdAt,value
2022-11-25T00:01:28.423Z,7.50
2022-11-25T00:03:58.479Z,7.50
2022-11-25T00:06:29.076Z,7.50
2022-11-25T00:09:00.654Z,7.50
2022-11-25T00:11:30.070Z,7.50
2022-11-25T00:13:59.803Z,7.40
2022-11-25T00:16:28.494Z,7.40
2022-11-25T00:18:58.868Z,7.40
2022-11-25T00:21:29.769Z,7.40
2022-11-25T00:24:01.109Z,7.30
2022-11-25T00:26:31.718Z,7.30
2022-11-25T00:29:01.235Z,7.30
2022-11-25T00:31:31.102Z,7.20
2022-11-25T00:34:00.457Z,7.20
2022-11-25T00:36:30.407Z,7.20
2022-11-25T00:39:01.458Z,7.20
2022-11-25T00:41:48.310Z,7.20
2022-11-25T00:44:35.885Z,7.10
2022-11-25T00:47:05.635Z,7.10
2022-11-25T00:49:34.225Z,7.10
2022-11-25T00:52:03.569Z,7.10
2022-11-25T00:54:33.410Z,7.00
2022-11-25T00:57:02.335Z,7.00
2022-11-25T00:59:30.413Z,8.70
2022-11-25T01:01:58.553Z,6.90
2022-11-25T01:04:27.271Z,6.90
2022-11-25T01:06:57.363Z,6.90
2022-11-25T01:09:26.002Z,6.90
2022-11-25T01:11:55.610Z,6.80
2022-11-25T01:14:24.708Z,6.80
2022-11-25T01:16:53.297Z,6.80
2022-11-25T01:19:22.197Z,6.80
2022-11-25T01:21:50.370Z,6.80
2022-11-25T01:24:19.332Z,6.80
2022-11-25T01:26:47.812Z,6.70
2022-11-25T01:29:19.722Z,6.70
2022-11-25T01:31:49.698Z,6.70
2022-11-25T01:34:20.141Z,6.70
2022-11-25T01:36:48.748Z,6.60
2022-11-25T01:39:19.823Z,6.60
2022-11-25T01:41:48.978Z,6.60
2022-11-25T01:44:20.526Z,6.60
2022-11-25T01:46:56.279Z,6.60
2022-11-25T01:49:30.723Z,6.50
2022-11-25T01:52:04.229Z,6.50
2022-11-25T01:54:36.855Z,6.40
2022-11-25T01:57:10.456Z,6.40
2022-11-25T01:59:45.089Z,6.40
2022-11-25T02:02:14.754Z,6.40
2022-11-25T02:04:44.582Z,6.30
2022-11-25T02:07:19.984Z,6.30
2022-11-25T02:09:50.205Z,6.30
2022-11-25T02:12:21.624Z,6.30
2022-11-25T02:14:53.623Z,6.30
2022-11-25T02:17:22.162Z,6.30
2022-11-25T02:20:01.480Z,6.30
2022-11-25T02:22:43.042Z,6.30
2022-11-25T02:25:17.094Z,6.30
2022-11-25T02:27:48.603Z,6.20
2022-11-25T02:30:17.403Z,6.30
2022-11-25T02:32:46.015Z,6.20
2022-11-25T02:35:30.175Z,6.30
2022-11-25T02:38:04.865Z,6.30
2022-11-25T02:40:39.236Z,6.30
2022-11-25T02:43:07.523Z,6.30
2022-11-25T02:45:45.961Z,6.40
2022-11-25T02:48:15.142Z,6.40
2022-11-25T02:50:43.888Z,6.40
2022-11-25T02:53:12.093Z,6.30
2022-11-25T02:55:42.218Z,6.30
2022-11-25T02:58:11.255Z,6.20
2022-11-25T03:00:39.370Z,6.20
2022-11-25T03:03:08.559Z,6.10
2022-11-25T03:05:37.113Z,6.00
2022-11-25T03:08:06.132Z,5.90
2022-11-25T03:10:34.265Z,5.90
2022-11-25T03:13:04.528Z,5.80
2022-11-25T03:15:33.116Z,5.80
2022-11-25T03:18:01.224Z,5.80
2022-11-25T03:20:29.956Z,5.70
2022-11-25T03:22:58.285Z,5.70
2022-11-25T03:25:26.926Z,5.70
2022-11-25T03:27:55.111Z,5.70
2022-11-25T03:30:26.887Z,5.70
2022-11-25T03:32:55.256Z,5.70
2022-11-25T03:35:23.949Z,5.70
2022-11-25T03:37:52.094Z,5.70
2022-11-25T03:40:20.303Z,5.70
2022-11-25T03:42:48.962Z,5.70
2022-11-25T03:45:17.748Z,5.70
2022-11-25T03:47:48.026Z,5.70
2022-11-25T03:50:17.339Z,5.70
2022-11-25T03:52:46.052Z,5.70
2022-11-25T03:55:14.216Z,5.70
2022-11-25T03:57:43.153Z,5.70
2022-11-25T04:00:12.871Z,5.60
2022-11-25T04:02:41.494Z,5.70
2022-11-25T04:05:11.376Z,5.60
2022-11-25T04:07:40.054Z,5.60
2022-11-25T04:10:09.653Z,5.60
2022-11-25T04:12:54.427Z,5.60
2022-11-25T04:15:25.901Z,5.50
2022-11-25T04:17:54.749Z,5.50
2022-11-25T04:20:24.694Z,5.50
2022-11-25T04:22:53.298Z,5.50
2022-11-25T04:25:21.525Z,5.50
2022-11-25T04:27:50.138Z,5.50
2022-11-25T04:30:18.618Z,5.50
2022-11-25T04:32:47.240Z,5.50
2022-11-25T04:35:15.402Z,5.50
2022-11-25T04:37:44.885Z,5.50
2022-11-25T04:40:14.364Z,5.50
2022-11-25T04:42:42.503Z,5.50
2022-11-25T04:45:22.903Z,5.50
2022-11-25T04:47:51.670Z,5.50
2022-11-25T04:50:21.825Z,5.50
2022-11-25T04:52:51.463Z,5.50
2022-11-25T04:55:20.207Z,5.50
2022-11-25T05:01:32.233Z,5.40
2022-11-25T05:04:00.854Z,5.40
2022-11-25T05:06:28.938Z,5.40
2022-11-25T05:08:58.927Z,5.40
2022-11-25T05:11:30.117Z,5.40
2022-11-25T05:13:58.693Z,5.40
2022-11-25T05:16:26.847Z,5.30
2022-11-25T05:18:57.275Z,5.30
2022-11-25T05:21:25.891Z,5.30
2022-11-25T05:23:56.112Z,5.30
2022-11-25T05:26:26.249Z,5.30
2022-11-25T05:28:54.407Z,5.20
2022-11-25T05:31:22.663Z,5.20
2022-11-25T05:33:50.935Z,5.20
2022-11-25T05:36:19.110Z,5.20
2022-11-25T05:38:47.835Z,5.20
2022-11-25T05:41:16.319Z,5.20
2022-11-25T05:43:47.089Z,5.10
2022-11-25T05:46:16.100Z,5.10
2022-11-25T05:48:44.332Z,5.10
2022-11-25T05:51:13.145Z,5.10
2022-11-25T05:53:41.396Z,5.10
2022-11-25T05:56:11.052Z,5.00
2022-11-25T05:58:39.661Z,5.00
2022-11-25T06:01:10.502Z,5.10
2022-11-25T06:03:39.545Z,5.00
2022-11-25T06:06:08.783Z,5.00
2022-11-25T06:08:39.278Z,5.00
2022-11-25T06:11:08.698Z,5.00
2022-11-25T06:13:36.820Z,5.00
2022-11-25T06:16:11.318Z,5.00
2022-11-25T06:18:40.176Z,5.00
2022-11-25T06:21:10.070Z,5.00
2022-11-25T06:23:39.437Z,5.00
2022-11-25T06:26:10.036Z,5.00
2022-11-25T06:28:38.274Z,5.00
2022-11-25T06:31:10.471Z,5.00
2022-11-25T06:33:38.659Z,5.00
2022-11-25T06:36:09.393Z,5.00
2022-11-25T06:38:37.502Z,5.00
2022-11-25T06:41:08.879Z,5.00
2022-11-25T06:43:37.489Z,5.00
2022-11-25T06:46:07.657Z,5.00
2022-11-25T06:48:38.005Z,5.00
2022-11-25T06:51:09.300Z,5.00
2022-11-25T06:53:38.012Z,4.90
2022-11-25T06:56:09.651Z,4.90
2022-11-25T06:58:40.352Z,4.90
2022-11-25T07:01:12.792Z,4.90
2022-11-25T07:03:43.235Z,5.00
2022-11-25T07:06:13.801Z,5.00
2022-11-25T07:08:45.498Z,5.00
2022-11-25T07:11:18.239Z,5.10
2022-11-25T07:13:47.126Z,5.10
2022-11-25T07:16:16.914Z,5.20
2022-11-25T07:18:46.506Z,5.20
2022-11-25T07:21:16.894Z,5.30
2022-11-25T07:23:46.796Z,5.30
2022-11-25T07:26:17.830Z,5.40
2022-11-25T07:28:47.257Z,5.50
2022-11-25T07:31:28.740Z,5.50
2022-11-25T07:34:03.919Z,5.60
2022-11-25T07:36:33.157Z,5.60
2022-11-25T07:39:03.781Z,5.70
2022-11-25T07:41:31.903Z,5.80
2022-11-25T07:44:02.713Z,5.80
2022-11-25T07:46:32.314Z,5.90
2022-11-25T07:49:03.640Z,5.90
2022-11-25T07:51:33.407Z,5.90
2022-11-25T07:54:04.179Z,6.00
2022-11-25T07:56:32.898Z,6.00
2022-11-25T07:59:01.731Z,6.10
2022-11-25T08:01:30.026Z,6.10
2022-11-25T08:03:58.805Z,6.20
2022-11-25T08:06:29.852Z,6.20
2022-11-25T08:09:00.166Z,6.30
2022-11-25T08:11:30.368Z,6.40
2022-11-25T08:14:00.419Z,6.40
2022-11-25T08:16:31.292Z,6.50
2022-11-25T08:19:00.450Z,6.50
2022-11-25T08:21:30.336Z,6.50
2022-11-25T08:24:08.353Z,6.60
2022-11-25T08:26:38.577Z,6.60
2022-11-25T08:29:08.469Z,6.60
2022-11-25T08:31:39.408Z,6.60
2022-11-25T08:34:09.036Z,6.60
2022-11-25T08:36:41.480Z,6.60
2022-11-25T08:39:36.207Z,6.60
2022-11-25T08:42:04.478Z,6.60
2022-11-25T08:44:33.190Z,6.60
2022-11-25T08:47:01.531Z,6.60
2022-11-25T08:49:33.793Z,6.60
2022-11-25T08:52:06.362Z,6.60
2022-11-25T08:54:34.984Z,6.50
2022-11-25T08:57:03.862Z,6.50
2022-11-25T08:59:32.449Z,6.40
2022-11-25T09:02:01.182Z,6.40
2022-11-25T09:04:29.483Z,6.40
2022-11-25T09:06:58.151Z,6.50
2022-11-25T09:09:28.311Z,6.50
2022-11-25T09:11:56.499Z,6.50
2022-11-25T09:14:25.149Z,6.50
2022-11-25T09:16:53.643Z,6.60
2022-11-25T09:19:22.314Z,6.60
2022-11-25T09:21:51.053Z,6.60
2022-11-25T09:24:19.172Z,6.60
2022-11-25T09:26:49.403Z,7.90
2022-11-25T09:29:17.997Z,6.70
2022-11-25T09:31:48.912Z,6.80
2022-11-25T09:34:21.637Z,6.90
2022-11-25T09:36:49.823Z,6.90
2022-11-25T09:39:18.548Z,7.00
2022-11-25T09:42:23.636Z,7.10
2022-11-25T09:45:30.269Z,7.20
2022-11-25T09:48:10.706Z,7.30
2022-11-25T09:50:52.357Z,7.40
2022-11-25T09:53:32.027Z,7.40
2022-11-25T09:56:04.822Z,7.50
2022-11-25T09:58:38.347Z,7.50
2022-11-25T10:01:13.320Z,7.50
2022-11-25T10:03:45.369Z,7.60
2022-11-25T10:06:18.238Z,7.60
2022-11-25T10:08:49.734Z,7.60
2022-11-25T10:11:27.715Z,7.70
2022-11-25T10:14:01.755Z,7.70
2022-11-25T10:16:40.964Z,7.80
2022-11-25T10:19:16.943Z,7.80
2022-11-25T10:21:46.885Z,7.80
2022-11-25T10:24:17.688Z,7.90
2022-11-25T10:26:50.129Z,8.00
2022-11-25T10:29:27.897Z,8.00
2022-11-25T10:32:10.425Z,8.10
2022-11-25T10:34:43.712Z,8.20
2022-11-25T10:37:16.730Z,8.30
2022-11-25T10:39:45.334Z,8.40
2022-11-25T10:42:23.442Z,8.50
2022-11-25T10:44:54.851Z,8.50
2022-11-25T10:47:37.173Z,8.60
2022-11-25T10:50:16.030Z,8.70
2022-11-25T10:52:51.338Z,8.80
2022-11-25T10:55:22.064Z,8.80
2022-11-25T10:57:50.224Z,8.90
2022-11-25T11:00:33.208Z,8.90
2022-11-25T11:03:15.792Z,9.00
2022-11-25T11:05:48.846Z,9.00
2022-11-25T11:08:23.376Z,9.10
2022-11-25T11:11:15.466Z,9.10
2022-11-25T11:13:44.255Z,8.70
2022-11-25T11:16:29.760Z,9.20
2022-11-25T11:18:59.385Z,9.30
2022-11-25T11:21:32.612Z,9.30
2022-11-25T11:24:01.715Z,9.40
2022-11-25T11:26:32.259Z,9.40
2022-11-25T11:29:03.702Z,9.50
2022-11-25T11:31:39.699Z,9.50
2022-11-25T11:34:24.998Z,9.50
2022-11-25T11:37:10.346Z,9.60
2022-11-25T11:40:00.102Z,9.60
2022-11-25T11:42:35.962Z,9.70
2022-11-25T11:45:16.519Z,9.70
2022-11-25T11:48:01.090Z,9.70
2022-11-25T11:50:33.070Z,9.70
2022-11-25T11:53:10.753Z,9.80
2022-11-25T11:56:19.026Z,9.80
2022-11-25T11:58:59.847Z,9.90
2022-11-25T12:01:39.927Z,9.90
2022-11-25T12:04:20.816Z,10.00
2022-11-25T12:06:59.883Z,10.00
2022-11-25T12:09:33.103Z,10.10
2022-11-25T12:12:07.122Z,10.10
2022-11-25T12:14:42.366Z,10.10
2022-11-25T12:17:16.455Z,10.10
2022-11-25T12:19:56.300Z,10.10
2022-11-25T12:22:28.992Z,10.20
2022-11-25T12:25:05.355Z,10.20
2022-11-25T12:27:37.627Z,10.20
2022-11-25T12:30:08.057Z,10.20
2022-11-25T12:33:02.738Z,10.20
2022-11-25T12:35:43.578Z,10.20
2022-11-25T12:38:24.994Z,10.30
2022-11-25T12:41:01.337Z,10.20
2022-11-25T12:43:36.891Z,10.30
2022-11-25T12:46:15.187Z,10.30
2022-11-25T12:48:45.079Z,10.30
2022-11-25T12:51:32.713Z,10.30
2022-11-25T12:54:11.859Z,10.40
2022-11-25T12:56:57.785Z,10.40
2022-11-25T12:59:51.104Z,10.40
2022-11-25T13:02:45.859Z,10.40
2022-11-25T13:05:41.323Z,10.40
2022-11-25T13:08:25.738Z,10.40
2022-11-25T13:11:23.126Z,10.40
2022-11-25T13:13:58.629Z,10.40
2022-11-25T13:16:28.870Z,10.40
2022-11-25T13:18:58.301Z,10.40
2022-11-25T13:21:29.036Z,10.40
2022-11-25T13:24:00.035Z,10.40
2022-11-25T13:26:51.532Z,10.40
2022-11-25T13:29:59.295Z,10.40
2022-11-25T13:32:43.277Z,10.40
2022-11-25T13:35:59.604Z,10.40
2022-11-25T13:38:58.062Z,10.40
2022-11-25T13:41:37.797Z,10.40
2022-11-25T13:44:12.676Z,10.40
2022-11-25T13:46:44.021Z,10.40
2022-11-25T13:49:25.028Z,10.40
2022-11-25T13:51:55.485Z,10.40
2022-11-25T13:54:32.119Z,10.40
2022-11-25T13:57:18.425Z,10.40
2022-11-25T13:59:56.482Z,10.40
2022-11-25T14:02:38.672Z,10.40
2022-11-25T14:05:29.824Z,10.40
2022-11-25T14:08:09.050Z,10.40
2022-11-25T14:10:47.277Z,10.40
2022-11-25T14:13:49.870Z,10.40
2022-11-25T14:16:37.937Z,10.40
2022-11-25T14:22:31.530Z,10.40
2022-11-25T14:25:20.590Z,10.40
2022-11-25T14:27:52.739Z,10.40
2022-11-25T14:30:22.662Z,10.40
2022-11-25T14:32:58.217Z,10.40
2022-11-25T14:35:31.622Z,10.40
2022-11-25T14:38:04.849Z,10.40
2022-11-25T14:40:38.013Z,10.40
2022-11-25T14:43:09.388Z,10.40
2022-11-25T14:45:39.612Z,10.40
2022-11-25T14:48:15.146Z,10.40
2022-11-25T14:50:58.569Z,10.40
2022-11-25T14:53:27.472Z,10.40
2022-11-25T14:55:58.510Z,10.40
2022-11-25T14:58:28.105Z,10.40
2022-11-25T15:01:05.220Z,10.40
2022-11-25T15:03:33.855Z,10.40
2022-11-25T15:06:05.389Z,10.40
2022-11-25T15:08:40.948Z,10.50
2022-11-25T15:11:14.730Z,10.50
2022-11-25T15:13:46.059Z,10.50
2022-11-25T15:16:18.266Z,10.50
2022-11-25T15:18:50.075Z,10.50
2022-11-25T15:21:23.523Z,10.50
2022-11-25T15:23:51.897Z,10.50
2022-11-25T15:26:23.379Z,10.50
2022-11-25T15:28:56.156Z,10.50
2022-11-25T15:31:30.400Z,10.50
2022-11-25T15:34:02.897Z,10.50
2022-11-25T15:36:31.881Z,10.50
2022-11-25T15:39:16.593Z,10.50
2022-11-25T15:41:46.793Z,10.50
2022-11-25T15:44:23.524Z,10.50
2022-11-25T15:47:02.289Z,10.50
2022-11-25T15:49:31.139Z,10.50
2022-11-25T15:52:04.446Z,10.50
2022-11-25T15:54:39.342Z,10.50
2022-11-25T15:57:18.302Z,10.50
2022-11-25T15:59:52.043Z,10.50
2022-11-25T16:02:38.077Z,10.50
2022-11-25T16:05:39.331Z,10.50
2022-11-25T16:08:31.203Z,10.50
2022-11-25T16:11:01.791Z,10.50
2022-11-25T16:13:36.148Z,10.50
2022-11-25T16:16:15.154Z,10.50
2022-11-25T16:19:06.148Z,10.50
2022-11-25T16:21:48.576Z,10.50
2022-11-25T16:24:47.408Z,10.50
2022-11-25T16:27:22.639Z,10.50
2022-11-25T16:29:57.755Z,10.50
2022-11-25T16:32:28.295Z,10.50
2022-11-25T16:35:01.177Z,10.40
2022-11-25T16:37:29.321Z,10.40
2022-11-25T16:39:57.465Z,10.40
2022-11-25T16:42:26.936Z,10.40
2022-11-25T16:44:55.043Z,10.40
2022-11-25T16:47:24.657Z,10.40
2022-11-25T16:49:52.760Z,10.40
2022-11-25T16:52:22.761Z,10.40
2022-11-25T16:54:52.357Z,10.40
2022-11-25T16:57:23.122Z,10.40
2022-11-25T16:59:57.240Z,10.40
2022-11-25T17:02:27.390Z,10.40
2022-11-25T17:04:58.056Z,10.40
2022-11-25T17:07:33.265Z,10.40
2022-11-25T17:10:02.513Z,10.40
2022-11-25T17:12:33.196Z,10.40
2022-11-25T17:15:02.411Z,10.40
2022-11-25T17:17:31.370Z,10.40
2022-11-25T17:20:00.098Z,10.40
2022-11-25T17:22:33.490Z,10.40
2022-11-25T17:25:06.465Z,10.40
2022-11-25T17:27:35.523Z,10.30
2022-11-25T17:30:06.574Z,10.30
2022-11-25T17:32:36.043Z,10.30
2022-11-25T17:35:04.336Z,10.30
2022-11-25T17:37:34.334Z,10.30
2022-11-25T17:40:02.520Z,10.30
2022-11-25T17:42:33.610Z,10.30
2022-11-25T17:45:02.043Z,10.30
2022-11-25T17:47:30.120Z,10.30
2022-11-25T17:49:58.927Z,10.30
2022-11-25T17:52:27.052Z,10.30
2022-11-25T17:54:56.710Z,10.30
2022-11-25T17:57:29.158Z,10.30
2022-11-25T18:03:45.169Z,10.30
2022-11-25T18:06:13.316Z,10.20
2022-11-25T18:08:41.380Z,10.20
2022-11-25T18:11:16.253Z,10.20
2022-11-25T18:13:47.815Z,10.20
2022-11-25T18:16:19.199Z,10.20
2022-11-25T18:18:50.699Z,10.20
2022-11-25T18:21:18.738Z,10.20
2022-11-25T18:23:47.276Z,10.20
2022-11-25T18:26:17.224Z,10.20
2022-11-25T18:28:45.473Z,10.20
2022-11-25T18:31:14.432Z,10.10
2022-11-25T18:33:42.806Z,10.10
2022-11-25T18:36:15.217Z,10.10
2022-11-25T18:38:43.795Z,10.10
2022-11-25T18:41:22.178Z,10.10
2022-11-25T18:43:50.612Z,10.10
2022-11-25T18:46:18.861Z,10.10
2022-11-25T18:48:46.997Z,10.10
2022-11-25T18:51:16.858Z,10.10
2022-11-25T18:53:44.931Z,10.00
2022-11-25T18:56:17.671Z,10.10
2022-11-25T18:58:51.968Z,10.00
2022-11-25T19:01:24.329Z,10.00
2022-11-25T19:03:53.809Z,10.00
2022-11-25T19:06:22.408Z,10.00
2022-11-25T19:08:52.962Z,10.00
2022-11-25T19:11:28.458Z,10.00
2022-11-25T19:14:03.255Z,10.00
2022-11-25T19:16:31.560Z,10.00
2022-11-25T19:18:59.721Z,10.00
2022-11-25T19:21:30.576Z,10.00
2022-11-25T19:24:01.691Z,10.00
2022-11-25T19:26:36.027Z,10.00
2022-11-25T19:29:08.621Z,10.00
2022-11-25T19:31:37.387Z,10.00
2022-11-25T19:34:05.763Z,10.00
2022-11-25T19:36:35.517Z,10.10
2022-11-25T19:39:04.072Z,10.10
2022-11-25T19:41:32.168Z,10.00
2022-11-25T19:44:00.808Z,10.00
2022-11-25T19:46:46.290Z,10.00
2022-11-25T19:49:21.907Z,10.00
2022-11-25T19:51:50.036Z,10.00
2022-11-25T19:54:20.450Z,10.00
2022-11-25T19:56:49.069Z,10.00
2022-11-25T19:59:17.681Z,10.00
2022-11-25T20:01:47.698Z,10.00
2022-11-25T20:04:21.726Z,10.10
2022-11-25T20:06:50.517Z,10.10
2022-11-25T20:09:18.746Z,10.10
2022-11-25T20:11:47.993Z,10.10
2022-11-25T20:14:16.072Z,10.10
2022-11-25T20:16:44.190Z,10.10
2022-11-25T20:19:18.775Z,10.10
2022-11-25T20:21:49.105Z,10.10
2022-11-25T20:24:20.211Z,10.10
2022-11-25T20:26:50.799Z,10.20
2022-11-25T20:29:26.082Z,10.20
2022-11-25T20:31:58.977Z,10.20
2022-11-25T20:34:28.479Z,10.10
2022-11-25T20:36:56.653Z,10.10
2022-11-25T20:39:24.829Z,10.20
2022-11-25T20:41:54.294Z,10.20
2022-11-25T20:44:22.783Z,10.10
2022-11-25T20:46:50.868Z,10.10
2022-11-25T20:49:27.956Z,10.10
2022-11-25T20:51:58.136Z,10.00
2022-11-25T20:54:26.559Z,10.10
2022-11-25T20:56:57.125Z,10.00
2022-11-25T20:59:26.083Z,10.00
2022-11-25T21:01:54.825Z,10.00
2022-11-25T21:04:23.221Z,9.90
2022-11-25T21:06:51.340Z,9.90
2022-11-25T21:09:23.909Z,9.90
2022-11-25T21:11:52.511Z,9.90
2022-11-25T21:14:21.647Z,9.90
2022-11-25T21:16:49.845Z,9.90
2022-11-25T21:19:18.633Z,9.90
2022-11-25T21:21:48.618Z,9.80
2022-11-25T21:24:28.332Z,9.80
2022-11-25T21:26:57.589Z,9.80
2022-11-25T21:29:26.205Z,9.90
2022-11-25T21:31:54.932Z,9.90
2022-11-25T21:34:23.150Z,9.90
2022-11-25T21:36:55.665Z,9.90
2022-11-25T21:39:30.445Z,9.90
2022-11-25T21:42:02.295Z,9.90
2022-11-25T21:44:34.552Z,9.90
2022-11-25T21:47:03.048Z,9.90
2022-11-25T21:49:31.138Z,9.90
2022-11-25T21:51:59.775Z,10.00
2022-11-25T21:54:29.244Z,10.00
2022-11-25T21:56:59.580Z,10.00
2022-11-25T21:59:28.841Z,10.00
2022-11-25T22:01:57.558Z,10.00
2022-11-25T22:04:25.788Z,10.10
2022-11-25T22:06:55.652Z,10.10
2022-11-25T22:09:23.961Z,10.10
2022-11-25T22:11:53.632Z,10.10
2022-11-25T22:14:28.890Z,10.10
2022-11-25T22:16:58.479Z,10.10
2022-11-25T22:19:29.344Z,10.10
2022-11-25T22:21:58.189Z,10.10
2022-11-25T22:24:26.780Z,10.10
2022-11-25T22:26:58.282Z,10.00
2022-11-25T22:29:34.712Z,10.00
2022-11-25T22:32:07.044Z,10.00
2022-11-25T22:34:38.480Z,10.00
2022-11-25T22:37:16.946Z,10.00
2022-11-25T22:39:45.050Z,10.00
2022-11-25T22:42:21.664Z,10.00
2022-11-25T22:44:50.824Z,10.00
2022-11-25T22:47:26.928Z,10.00
2022-11-25T22:49:55.930Z,10.10
2022-11-25T22:52:27.046Z,10.10
2022-11-25T22:54:55.681Z,10.00
2022-11-25T22:57:25.236Z,10.00
2022-11-25T22:59:53.345Z,10.00
2022-11-25T23:02:24.888Z,10.00
2022-11-25T23:04:55.594Z,10.00
2022-11-25T23:07:25.124Z,10.00
2022-11-25T23:09:59.833Z,10.00
2022-11-25T23:12:29.461Z,10.00
2022-11-25T23:15:01.671Z,10.00
2022-11-25T23:17:30.394Z,10.00
2022-11-25T23:19:58.556Z,10.00
2022-11-25T23:22:27.077Z,10.00
2022-11-25T23:24:58.238Z,10.00
2022-11-25T23:27:26.825Z,10.10
2022-11-25T23:30:00.024Z,10.10
2022-11-25T23:32:29.182Z,10.10
2022-11-25T23:35:00.225Z,10.10
2022-11-25T23:37:28.553Z,10.10
2022-11-25T23:39:57.084Z,10.70
2022-11-25T23:42:25.145Z,10.10
2022-11-25T23:44:53.718Z,10.10
2022-11-25T23:47:24.402Z,10.10
2022-11-25T23:49:57.153Z,10.20
2022-11-25T23:52:28.631Z,10.20
2022-11-25T23:54:56.941Z,10.20
2022-11-25T23:57:28.186Z,10.20
2022-11-25T23:59:56.311Z,10.20
